sensor_id;sensor_type;location;lat;lon;timestamp;pressure;altitude;pressure_sealevel;temperature;humidity
48267;BME280;34088;52.232;5.196;2023-10-31T00:01:03;99697.19;;;10.42;100.00
48267;BME280;34088;52.232;5.196;2023-10-31T00:03:29;99699.94;;;10.39;99.79
48267;BME280;34088;52.232;5.196;2023-10-31T00:05:54;99691.34;;;10.38;100.00
48267;BME280;34088;52.232;5.196;2023-10-31T00:08:19;99696.50;;;10.38;100.00
48267;BME280;34088;52.232;5.196;2023-10-31T00:10:44;99706.63;;;10.43;100.00
48267;BME280;34088;52.232;5.196;2023-10-31T00:13:10;99700.75;;;10.39;100.00
48267;BME280;34088;52.232;5.196;2023-10-31T00:15:36;99705.03;;;10.40;100.00
48267;BME280;34088;52.232;5.196;2023-10-31T00:18:01;99709.13;;;10.44;100.00
48267;BME280;34088;52.232;5.196;2023-10-31T00:33:02;99704.53;;;10.34;100.00
48267;BME280;34088;52.232;5.196;2023-10-31T00:35:27;99709.63;;;10.35;100.00
48267;BME280;34088;52.232;5.196;2023-10-31T00:37:52;99714.00;;;10.33;100.00
48267;BME280;34088;52.232;5.196;2023-10-31T00:40:17;99720.28;;;10.29;100.00
48267;BME280;34088;52.232;5.196;2023-10-31T00:42:43;99716.78;;;10.30;100.00
48267;BME280;34088;52.232;5.196;2023-10-31T00:45:08;99716.59;;;10.33;100.00
48267;BME280;34088;52.232;5.196;2023-10-31T00:47:34;99718.28;;;10.34;100.00
48267;BME280;34088;52.232;5.196;2023-10-31T00:49:59;99726.81;;;10.36;100.00
48267;BME280;34088;52.232;5.196;2023-10-31T00:52:24;99724.22;;;10.36;100.00
48267;BME280;34088;52.232;5.196;2023-10-31T00:54:50;99720.97;;;10.33;100.00
48267;BME280;34088;52.232;5.196;2023-10-31T00:57:15;99722.38;;;10.38;100.00
48267;BME280;34088;52.232;5.196;2023-10-31T00:59:40;99727.50;;;10.40;100.00
48267;BME280;34088;52.232;5.196;2023-10-31T01:02:06;99736.84;;;10.42;100.00
48267;BME280;34088;52.232;5.196;2023-10-31T01:04:31;99741.16;;;10.42;100.00
48267;BME280;34088;52.232;5.196;2023-10-31T01:06:56;99730.00;;;10.41;100.00
48267;BME280;34088;52.232;5.196;2023-10-31T01:09:22;99743.19;;;10.52;100.00
48267;BME280;34088;52.232;5.196;2023-10-31T01:11:47;99738.88;;;10.53;100.00
48267;BME280;34088;52.232;5.196;2023-10-31T01:14:12;99746.56;;;10.54;100.00
48267;BME280;34088;52.232;5.196;2023-10-31T01:16:42;99749.91;;;10.56;100.00
48267;BME280;34088;52.232;5.196;2023-10-31T01:19:07;99743.19;;;10.52;100.00
48267;BME280;34088;52.232;5.196;2023-10-31T01:21:33;99745.63;;;10.55;100.00
48267;BME280;34088;52.232;5.196;2023-10-31T01:23:59;99749.81;;;10.58;100.00
48267;BME280;34088;52.232;5.196;2023-10-31T01:26:24;99748.91;;;10.59;100.00
48267;BME280;34088;52.232;5.196;2023-10-31T01:28:49;99750.81;;;10.55;100.00
48267;BME280;34088;52.232;5.196;2023-10-31T01:31:15;99750.75;;;10.57;100.00
48267;BME280;34088;52.232;5.196;2023-10-31T01:33:40;99752.34;;;10.59;100.00
48267;BME280;34088;52.232;5.196;2023-10-31T01:36:06;99751.50;;;10.59;100.00
48267;BME280;34088;52.232;5.196;2023-10-31T01:38:31;99759.25;;;10.59;100.00
48267;BME280;34088;52.232;5.196;2023-10-31T01:40:56;99761.47;;;10.66;100.00
48267;BME280;34088;52.232;5.196;2023-10-31T01:43:32;99769.53;;;10.60;100.00
48267;BME280;34088;52.232;5.196;2023-10-31T01:45:58;99772.81;;;10.64;100.00
48267;BME280;34088;52.232;5.196;2023-10-31T01:48:23;99773.72;;;10.63;100.00
48267;BME280;34088;52.232;5.196;2023-10-31T01:50:50;99756.75;;;10.57;100.00
48267;BME280;34088;52.232;5.196;2023-10-31T01:53:16;99772.81;;;10.64;100.00
48267;BME280;34088;52.232;5.196;2023-10-31T01:55:43;99774.53;;;10.63;100.00
48267;BME280;34088;52.232;5.196;2023-10-31T01:58:08;99775.81;;;10.72;100.00
48267;BME280;34088;52.232;5.196;2023-10-31T02:00:34;99771.41;;;10.74;100.00
48267;BME280;34088;52.232;5.196;2023-10-31T02:02:59;99773.00;;;10.76;100.00
48267;BME280;34088;52.232;5.196;2023-10-31T02:05:26;99760.53;;;10.67;100.00
48267;BME280;34088;52.232;5.196;2023-10-31T02:07:53;99767.16;;;10.73;100.00
48267;BME280;34088;52.232;5.196;2023-10-31T02:10:19;99767.16;;;10.73;100.00
48267;BME280;34088;52.232;5.196;2023-10-31T02:12:44;99767.06;;;10.74;100.00
48267;BME280;34088;52.232;5.196;2023-10-31T02:15:09;99745.31;;;10.61;100.00
48267;BME280;34088;52.232;5.196;2023-10-31T02:17:34;99761.13;;;10.72;100.00
48267;BME280;34088;52.232;5.196;2023-10-31T02:20:00;99766.31;;;10.72;100.00
48267;BME280;34088;52.232;5.196;2023-10-31T02:22:25;99767.84;;;10.76;100.00
48267;BME280;34088;52.232;5.196;2023-10-31T02:24:50;99778.19;;;10.76;100.00
48267;BME280;34088;52.232;5.196;2023-10-31T02:27:16;99769.66;;;10.74;100.00
48267;BME280;34088;52.232;5.196;2023-10-31T02:29:41;99778.19;;;10.76;100.00
48267;BME280;34088;52.232;5.196;2023-10-31T02:32:06;99783.94;;;10.81;100.00
48267;BME280;34088;52.232;5.196;2023-10-31T02:34:31;99785.09;;;10.76;100.00
48267;BME280;34088;52.232;5.196;2023-10-31T02:36:57;99786.69;;;10.78;100.00
48267;BME280;34088;52.232;5.196;2023-10-31T02:39:22;99789.22;;;10.80;100.00
48267;BME280;34088;52.232;5.196;2023-10-31T02:41:47;99795.22;;;10.80;100.00
48267;BME280;34088;52.232;5.196;2023-10-31T02:44:14;99795.06;;;10.83;100.00
48267;BME280;34088;52.232;5.196;2023-10-31T02:46:39;99797.06;;;10.78;100.00
48267;BME280;34088;52.232;5.196;2023-10-31T02:49:04;99804.75;;;10.80;100.00
48267;BME280;34088;52.232;5.196;2023-10-31T02:51:30;99806.50;;;10.79;100.00
48267;BME280;34088;52.232;5.196;2023-10-31T02:53:55;99805.56;;;10.80;100.00
48267;BME280;34088;52.232;5.196;2023-10-31T02:56:20;99813.13;;;10.85;100.00
48267;BME280;34088;52.232;5.196;2023-10-31T02:58:45;99816.91;;;10.78;100.00
48267;BME280;34088;52.232;5.196;2023-10-31T03:01:11;99818.63;;;10.79;100.00
48267;BME280;34088;52.232;5.196;2023-10-31T03:03:36;99815.00;;;10.81;100.00
48267;BME280;34088;52.232;5.196;2023-10-31T03:06:02;99817.22;;;10.72;100.00
48267;BME280;34088;52.232;5.196;2023-10-31T03:08:27;99823.25;;;10.72;100.00
48267;BME280;34088;52.232;5.196;2023-10-31T03:10:53;99822.03;;;10.62;100.00
48267;BME280;34088;52.232;5.196;2023-10-31T03:13:18;99833.75;;;10.69;100.00
48267;BME280;34088;52.232;5.196;2023-10-31T03:15:45;99838.88;;;10.71;100.00
48267;BME280;34088;52.232;5.196;2023-10-31T03:18:11;99842.44;;;10.68;100.00
48267;BME280;34088;52.232;5.196;2023-10-31T03:20:36;99852.78;;;10.68;100.00
48267;BME280;34088;52.232;5.196;2023-10-31T03:23:01;99851.06;;;10.69;100.00
48267;BME280;34088;52.232;5.196;2023-10-31T03:25:27;99854.19;;;10.58;100.00
48267;BME280;34088;52.232;5.196;2023-10-31T03:27:52;99858.13;;;10.65;100.00
48267;BME280;34088;52.232;5.196;2023-10-31T03:30:17;99861.47;;;10.67;100.00
48267;BME280;34088;52.232;5.196;2023-10-31T03:32:42;99856.31;;;10.67;100.00
48267;BME280;34088;52.232;5.196;2023-10-31T03:35:07;99866.81;;;10.64;100.00
48267;BME280;34088;52.232;5.196;2023-10-31T03:37:33;99868.25;;;10.70;100.00
48267;BME280;34088;52.232;5.196;2023-10-31T03:39:58;99873.19;;;10.74;100.00
48267;BME280;34088;52.232;5.196;2023-10-31T03:42:23;99875.88;;;10.73;100.00
48267;BME280;34088;52.232;5.196;2023-10-31T03:44:49;99878.75;;;10.67;100.00
48267;BME280;34088;52.232;5.196;2023-10-31T03:47:14;99874.50;;;10.66;100.00
48267;BME280;34088;52.232;5.196;2023-10-31T03:49:40;99882.88;;;10.71;100.00
48267;BME280;34088;52.232;5.196;2023-10-31T03:52:05;99879.75;;;10.64;100.00
48267;BME280;34088;52.232;5.196;2023-10-31T03:54:31;99884.63;;;10.70;100.00
48267;BME280;34088;52.232;5.196;2023-10-31T03:56:56;99866.28;;;10.58;100.00
48267;BME280;34088;52.232;5.196;2023-10-31T03:59:21;99885.38;;;10.72;100.00
48267;BME280;34088;52.232;5.196;2023-10-31T04:01:46;99893.53;;;10.65;100.00
48267;BME280;34088;52.232;5.196;2023-10-31T04:04:12;99886.38;;;10.70;100.00
48267;BME280;34088;52.232;5.196;2023-10-31T04:06:37;99898.25;;;10.74;100.00
48267;BME280;34088;52.232;5.196;2023-10-31T04:09:05;99892.47;;;10.69;100.00
48267;BME280;34088;52.232;5.196;2023-10-31T04:11:31;99899.06;;;10.74;100.00
48267;BME280;34088;52.232;5.196;2023-10-31T04:13:56;99898.41;;;10.71;100.00
48267;BME280;34088;52.232;5.196;2023-10-31T04:16:21;99900.06;;;10.72;100.00
48267;BME280;34088;52.232;5.196;2023-10-31T04:18:46;99905.25;;;10.72;100.00
48267;BME280;34088;52.232;5.196;2023-10-31T04:21:12;99906.09;;;10.72;100.00
48267;BME280;34088;52.232;5.196;2023-10-31T04:23:37;99920.94;;;10.69;100.00
48267;BME280;34088;52.232;5.196;2023-10-31T04:26:02;99910.34;;;10.73;100.00
48267;BME280;34088;52.232;5.196;2023-10-31T04:28:28;99906.22;;;10.69;100.00
48267;BME280;34088;52.232;5.196;2023-10-31T04:30:53;99912.03;;;10.74;100.00
48267;BME280;34088;52.232;5.196;2023-10-31T04:33:18;99905.19;;;10.73;100.00
48267;BME280;34088;52.232;5.196;2023-10-31T04:35:43;99911.66;;;10.65;100.00
48267;BME280;34088;52.232;5.196;2023-10-31T04:38:08;99919.28;;;10.68;100.00
48267;BME280;34088;52.232;5.196;2023-10-31T04:40:34;99920.09;;;10.68;100.00
48267;BME280;34088;52.232;5.196;2023-10-31T04:42:59;99911.19;;;10.74;100.00
48267;BME280;34088;52.232;5.196;2023-10-31T04:45:24;99916.44;;;10.72;100.00
48267;BME280;34088;52.232;5.196;2023-10-31T04:47:49;99907.94;;;10.70;100.00
48267;BME280;34088;52.232;5.196;2023-10-31T04:50:15;99918.44;;;10.67;100.00
48267;BME280;34088;52.232;5.196;2023-10-31T04:52:40;99918.72;;;10.61;100.00
48267;BME280;34088;52.232;5.196;2023-10-31T04:55:06;99922.97;;;10.62;100.00
48267;BME280;34088;52.232;5.196;2023-10-31T04:57:31;99929.25;;;10.58;100.00
48267;BME280;34088;52.232;5.196;2023-10-31T04:59:56;99931.84;;;10.58;100.00
48267;BME280;34088;52.232;5.196;2023-10-31T05:02:23;99919.31;;;10.49;100.00
48267;BME280;34088;52.232;5.196;2023-10-31T05:04:48;99930.75;;;10.62;100.00
48267;BME280;34088;52.232;5.196;2023-10-31T05:07:16;99935.94;;;10.62;100.00
48267;BME280;34088;52.232;5.196;2023-10-31T05:09:42;99932.41;;;10.63;100.00
48267;BME280;34088;52.232;5.196;2023-10-31T05:12:07;99939.88;;;10.52;100.00
48267;BME280;34088;52.232;5.196;2023-10-31T05:14:32;99949.22;;;10.55;100.00
48267;BME280;34088;52.232;5.196;2023-10-31T05:16:57;99953.59;;;10.54;99.80
48267;BME280;34088;52.232;5.196;2023-10-31T05:19:22;99952.50;;;10.41;100.00
48267;BME280;34088;52.232;5.196;2023-10-31T05:21:48;99948.72;;;10.48;100.00
48267;BME280;34088;52.232;5.196;2023-10-31T05:24:13;99949.06;;;10.41;100.00
48267;BME280;34088;52.232;5.196;2023-10-31T05:26:39;99956.84;;;10.41;100.00
48267;BME280;34088;52.232;5.196;2023-10-31T05:29:05;99963.16;;;10.35;100.00
48267;BME280;34088;52.232;5.196;2023-10-31T05:31:30;99968.16;;;10.38;100.00
48267;BME280;34088;52.232;5.196;2023-10-31T05:33:55;99953.16;;;10.28;100.00
48267;BME280;34088;52.232;5.196;2023-10-31T05:36:21;99967.81;;;10.27;100.00
48267;BME280;34088;52.232;5.196;2023-10-31T05:38:47;99956.09;;;10.20;100.00
48267;BME280;34088;52.232;5.196;2023-10-31T05:41:13;99960.34;;;10.21;100.00
48267;BME280;34088;52.232;5.196;2023-10-31T05:43:39;99966.16;;;10.26;100.00
48267;BME280;34088;52.232;5.196;2023-10-31T05:46:04;99975.47;;;10.30;100.00
48267;BME280;34088;52.232;5.196;2023-10-31T05:48:31;99971.88;;;10.33;100.00
48267;BME280;34088;52.232;5.196;2023-10-31T05:50:56;99976.38;;;10.29;100.00
48267;BME280;34088;52.232;5.196;2023-10-31T05:53:21;99975.38;;;10.32;100.00
48267;BME280;34088;52.232;5.196;2023-10-31T05:55:46;99975.88;;;10.21;100.00
48267;BME280;34088;52.232;5.196;2023-10-31T05:58:12;99982.59;;;10.25;100.00
48267;BME280;34088;52.232;5.196;2023-10-31T06:00:37;99992.19;;;10.23;100.00
48267;BME280;34088;52.232;5.196;2023-10-31T06:03:03;99998.25;;;10.22;100.00
48267;BME280;34088;52.232;5.196;2023-10-31T06:05:28;99990.34;;;10.25;100.00
48267;BME280;34088;52.232;5.196;2023-10-31T06:07:53;99998.53;;;10.35;100.00
48267;BME280;34088;52.232;5.196;2023-10-31T06:10:18;99991.81;;;10.31;100.00
48267;BME280;34088;52.232;5.196;2023-10-31T06:12:43;100000.88;;;10.39;100.00
48267;BME280;34088;52.232;5.196;2023-10-31T06:15:10;99999.28;;;10.37;100.00
48267;BME280;34088;52.232;5.196;2023-10-31T06:17:35;100000.06;;;10.39;100.00
48267;BME280;34088;52.232;5.196;2023-10-31T06:20:02;100003.47;;;10.39;100.00
48267;BME280;34088;52.232;5.196;2023-10-31T06:22:27;100002.78;;;10.36;100.00
48267;BME280;34088;52.232;5.196;2023-10-31T06:24:53;100010.88;;;10.28;100.00
48267;BME280;34088;52.232;5.196;2023-10-31T06:27:18;100006.56;;;10.29;100.00
48267;BME280;34088;52.232;5.196;2023-10-31T06:29:44;100016.97;;;10.27;100.00
48267;BME280;34088;52.232;5.196;2023-10-31T06:32:09;100010.75;;;10.31;100.00
48267;BME280;34088;52.232;5.196;2023-10-31T06:34:34;100021.47;;;10.24;100.00
48267;BME280;34088;52.232;5.196;2023-10-31T06:36:59;100033.28;;;10.29;100.00
48267;BME280;34088;52.232;5.196;2023-10-31T06:39:24;100026.28;;;10.31;100.00
48267;BME280;34088;52.232;5.196;2023-10-31T06:41:50;100033.19;;;10.31;100.00
48267;BME280;34088;52.232;5.196;2023-10-31T06:44:15;100020.53;;;10.25;100.00
48267;BME280;34088;52.232;5.196;2023-10-31T06:46:40;100032.38;;;10.30;100.00
48267;BME280;34088;52.232;5.196;2023-10-31T06:49:05;100039.44;;;10.27;100.00
48267;BME280;34088;52.232;5.196;2023-10-31T06:51:31;100042.03;;;10.27;100.00
48267;BME280;34088;52.232;5.196;2023-10-31T06:53:56;100037.03;;;10.22;100.00
48267;BME280;34088;52.232;5.196;2023-10-31T06:56:21;100043.28;;;10.18;100.00
48267;BME280;34088;52.232;5.196;2023-10-31T06:58:46;100054.25;;;10.23;100.00
48267;BME280;34088;52.232;5.196;2023-10-31T07:01:11;100055.16;;;10.22;100.00
48267;BME280;34088;52.232;5.196;2023-10-31T07:03:38;100045.78;;;10.20;100.00
48267;BME280;34088;52.232;5.196;2023-10-31T07:06:04;100057.31;;;10.31;100.00
48267;BME280;34088;52.232;5.196;2023-10-31T07:08:29;100052.22;;;10.30;100.00
48267;BME280;34088;52.232;5.196;2023-10-31T07:10:55;100066.63;;;10.35;100.00
48267;BME280;34088;52.232;5.196;2023-10-31T07:13:20;100057.97;;;10.36;100.00
48267;BME280;34088;52.232;5.196;2023-10-31T07:15:45;100071.03;;;10.33;100.00
48267;BME280;34088;52.232;5.196;2023-10-31T07:18:11;100071.31;;;10.27;100.00
48267;BME280;34088;52.232;5.196;2023-10-31T07:20:37;100079.75;;;10.31;100.00
48267;BME280;34088;52.232;5.196;2023-10-31T07:23:02;100072.63;;;10.36;100.00
48267;BME280;34088;52.232;5.196;2023-10-31T07:25:27;100083.63;;;10.41;100.00
48267;BME280;34088;52.232;5.196;2023-10-31T07:27:52;100080.91;;;10.44;100.00
48267;BME280;34088;52.232;5.196;2023-10-31T07:30:18;100077.75;;;10.37;100.00
48267;BME280;34088;52.232;5.196;2023-10-31T07:32:44;100065.78;;;10.35;100.00
48267;BME280;34088;52.232;5.196;2023-10-31T07:35:10;100089.41;;;10.46;100.00
48267;BME280;34088;52.232;5.196;2023-10-31T07:37:35;100089.78;;;10.57;100.00
48267;BME280;34088;52.232;5.196;2023-10-31T07:40:00;100095.34;;;10.66;100.00
48267;BME280;34088;52.232;5.196;2023-10-31T07:42:25;100100.38;;;10.69;100.00
48267;BME280;34088;52.232;5.196;2023-10-31T07:44:51;100101.09;;;10.73;100.00
48267;BME280;34088;52.232;5.196;2023-10-31T07:47:16;100104.44;;;10.75;100.00
48267;BME280;34088;52.232;5.196;2023-10-31T07:49:42;100106.88;;;10.78;100.00
48267;BME280;34088;52.232;5.196;2023-10-31T07:52:07;100114.97;;;10.89;100.00
48267;BME280;34088;52.232;5.196;2023-10-31T07:54:33;100113.88;;;10.94;100.00
48267;BME280;34088;52.232;5.196;2023-10-31T07:56:58;100111.19;;;10.96;100.00
48267;BME280;34088;52.232;5.196;2023-10-31T07:59:23;100113.56;;;11.00;100.00
48267;BME280;34088;52.232;5.196;2023-10-31T08:01:48;100109.31;;;10.99;100.00
48267;BME280;34088;52.232;5.196;2023-10-31T08:04:15;100111.81;;;11.01;100.00
48267;BME280;34088;52.232;5.196;2023-10-31T08:06:41;100109.31;;;10.99;100.00
48267;BME280;34088;52.232;5.196;2023-10-31T08:09:06;100120.22;;;11.23;100.00
48267;BME280;34088;52.232;5.196;2023-10-31T08:11:32;100117.41;;;11.27;100.00
48267;BME280;34088;52.232;5.196;2023-10-31T08:13:57;100106.00;;;11.31;100.00
48267;BME280;34088;52.232;5.196;2023-10-31T08:16:22;100121.22;;;11.37;100.00
48267;BME280;34088;52.232;5.196;2023-10-31T08:18:48;100114.38;;;11.36;100.00
48267;BME280;34088;52.232;5.196;2023-10-31T08:21:14;100116.97;;;11.36;100.00
48267;BME280;34088;52.232;5.196;2023-10-31T08:23:39;100127.56;;;11.32;100.00
48267;BME280;34088;52.232;5.196;2023-10-31T08:26:04;100122.78;;;11.41;100.00
48267;BME280;34088;52.232;5.196;2023-10-31T08:28:29;100131.47;;;11.57;100.00
48267;BME280;34088;52.232;5.196;2023-10-31T08:30:56;100133.59;;;11.49;100.00
48267;BME280;34088;52.232;5.196;2023-10-31T08:33:21;100131.88;;;11.67;99.86
48267;BME280;34088;52.232;5.196;2023-10-31T08:35:46;100137.81;;;11.86;100.00
48267;BME280;34088;52.232;5.196;2023-10-31T08:38:12;100128.78;;;12.10;98.56
48267;BME280;34088;52.232;5.196;2023-10-31T08:40:38;100141.34;;;12.50;98.12
48267;BME280;34088;52.232;5.196;2023-10-31T08:43:03;100141.41;;;12.64;96.61
48267;BME280;34088;52.232;5.196;2023-10-31T08:45:31;100138.34;;;12.57;96.57
48267;BME280;34088;52.232;5.196;2023-10-31T08:47:56;100146.53;;;12.50;95.85
48267;BME280;34088;52.232;5.196;2023-10-31T08:50:21;100126.53;;;12.19;96.15
48267;BME280;34088;52.232;5.196;2023-10-31T08:52:47;100153.97;;;12.40;96.52
48267;BME280;34088;52.232;5.196;2023-10-31T08:55:12;100155.19;;;12.66;96.04
48267;BME280;34088;52.232;5.196;2023-10-31T08:57:37;100161.97;;;12.84;95.50
48267;BME280;34088;52.232;5.196;2023-10-31T09:00:03;100166.69;;;13.08;93.99
48267;BME280;34088;52.232;5.196;2023-10-31T09:02:30;100163.78;;;13.14;92.77
48267;BME280;34088;52.232;5.196;2023-10-31T09:04:55;100168.06;;;13.00;93.58
48267;BME280;34088;52.232;5.196;2023-10-31T09:07:20;100168.84;;;12.85;93.43
48267;BME280;34088;52.232;5.196;2023-10-31T09:09:46;100167.78;;;13.04;93.65
48267;BME280;34088;52.232;5.196;2023-10-31T09:12:11;100168.84;;;13.31;94.79
48267;BME280;34088;52.232;5.196;2023-10-31T09:14:36;100173.28;;;13.29;91.77
48267;BME280;34088;52.232;5.196;2023-10-31T09:17:02;100174.81;;;13.33;92.81
48267;BME280;34088;52.232;5.196;2023-10-31T09:19:27;100178.34;;;13.32;92.57
48267;BME280;34088;52.232;5.196;2023-10-31T09:21:54;100180.81;;;13.34;92.83
48267;BME280;34088;52.232;5.196;2023-10-31T09:24:19;100189.28;;;13.37;91.94
48267;BME280;34088;52.232;5.196;2023-10-31T09:26:44;100189.25;;;13.23;93.06
48267;BME280;34088;52.232;5.196;2023-10-31T09:29:10;100193.91;;;13.17;93.56
48267;BME280;34088;52.232;5.196;2023-10-31T09:31:35;100195.94;;;13.27;93.88
48267;BME280;34088;52.232;5.196;2023-10-31T09:34:01;100193.59;;;13.23;93.82
48267;BME280;34088;52.232;5.196;2023-10-31T09:36:28;100214.06;;;13.44;93.45
48267;BME280;34088;52.232;5.196;2023-10-31T09:38:54;100217.69;;;13.26;93.28
48267;BME280;34088;52.232;5.196;2023-10-31T09:41:19;100220.34;;;13.09;93.39
48267;BME280;34088;52.232;5.196;2023-10-31T09:43:44;100214.91;;;12.98;94.24
48267;BME280;34088;52.232;5.196;2023-10-31T09:46:10;100217.97;;;13.05;94.08
48267;BME280;34088;52.232;5.196;2023-10-31T09:48:35;100221.75;;;13.15;94.52
48267;BME280;34088;52.232;5.196;2023-10-31T09:51:01;100224.44;;;13.13;94.45
48267;BME280;34088;52.232;5.196;2023-10-31T09:53:28;100221.34;;;13.07;94.05
48267;BME280;34088;52.232;5.196;2023-10-31T09:55:54;100218.72;;;12.91;94.26
48267;BME280;34088;52.232;5.196;2023-10-31T09:58:21;100227.50;;;12.89;94.80
48267;BME280;34088;52.232;5.196;2023-10-31T10:00:46;100236.06;;;12.91;95.09
48267;BME280;34088;52.232;5.196;2023-10-31T10:03:12;100233.00;;;13.00;95.56
48267;BME280;34088;52.232;5.196;2023-10-31T10:05:37;100239.03;;;13.16;94.99
48267;BME280;34088;52.232;5.196;2023-10-31T10:08:04;100235.53;;;13.32;94.91
48267;BME280;34088;52.232;5.196;2023-10-31T10:10:29;100243.47;;;13.45;94.78
48267;BME280;34088;52.232;5.196;2023-10-31T10:12:56;100245.50;;;13.55;94.80
48267;BME280;34088;52.232;5.196;2023-10-31T10:15:22;100246.16;;;13.59;94.03
48267;BME280;34088;52.232;5.196;2023-10-31T10:17:51;100245.69;;;13.66;93.75
48267;BME280;34088;52.232;5.196;2023-10-31T10:20:17;100250.97;;;13.80;93.45
48267;BME280;34088;52.232;5.196;2023-10-31T10:22:43;100251.13;;;13.77;92.07
48267;BME280;34088;52.232;5.196;2023-10-31T10:25:10;100253.97;;;13.88;92.22
48267;BME280;34088;52.232;5.196;2023-10-31T10:27:37;100244.22;;;13.92;92.61
48267;BME280;34088;52.232;5.196;2023-10-31T10:30:03;100252.88;;;13.92;91.76
48267;BME280;34088;52.232;5.196;2023-10-31T10:32:29;100254.56;;;13.93;91.73
48267;BME280;34088;52.232;5.196;2023-10-31T10:34:54;100260.50;;;13.95;90.67
48267;BME280;34088;52.232;5.196;2023-10-31T10:37:20;100261.66;;;14.05;89.90
48267;BME280;34088;52.232;5.196;2023-10-31T10:39:51;100259.75;;;13.93;89.31
48267;BME280;34088;52.232;5.196;2023-10-31T10:42:30;100259.03;;;13.91;88.63
48267;BME280;34088;52.232;5.196;2023-10-31T10:44:58;100257.53;;;14.01;89.41
48267;BME280;34088;52.232;5.196;2023-10-31T10:47:27;100240.59;;;13.94;89.05
48267;BME280;34088;52.232;5.196;2023-10-31T10:49:54;100259.53;;;14.12;88.68
48267;BME280;34088;52.232;5.196;2023-10-31T10:52:49;100259.28;;;14.16;88.93
48267;BME280;34088;52.232;5.196;2023-10-31T10:55:19;100253.75;;;14.22;89.65
48267;BME280;34088;52.232;5.196;2023-10-31T10:58:00;100252.94;;;14.36;88.14
48267;BME280;34088;52.232;5.196;2023-10-31T11:00:26;100260.09;;;14.32;87.45
48267;BME280;34088;52.232;5.196;2023-10-31T11:02:52;100259.44;;;14.29;86.64
48267;BME280;34088;52.232;5.196;2023-10-31T11:05:19;100258.88;;;14.38;86.74
48267;BME280;34088;52.232;5.196;2023-10-31T11:07:45;100255.09;;;14.57;86.68
48267;BME280;34088;52.232;5.196;2023-10-31T11:10:11;100259.94;;;14.63;87.08
48267;BME280;34088;52.232;5.196;2023-10-31T11:12:37;100258.63;;;14.70;87.88
48267;BME280;34088;52.232;5.196;2023-10-31T11:15:05;100258.66;;;14.84;87.66
48267;BME280;34088;52.232;5.196;2023-10-31T11:17:33;100240.00;;;14.76;87.59
48267;BME280;34088;52.232;5.196;2023-10-31T11:19:59;100256.47;;;14.91;87.79
48267;BME280;34088;52.232;5.196;2023-10-31T11:22:25;100265.16;;;14.91;85.96
48267;BME280;34088;52.232;5.196;2023-10-31T11:24:51;100263.75;;;15.00;86.92
48267;BME280;34088;52.232;5.196;2023-10-31T11:27:18;100265.44;;;15.01;87.08
48267;BME280;34088;52.232;5.196;2023-10-31T11:29:43;100272.22;;;15.03;86.82
48267;BME280;34088;52.232;5.196;2023-10-31T11:32:09;100268.13;;;14.85;85.56
48267;BME280;34088;52.232;5.196;2023-10-31T11:34:37;100258.19;;;14.92;86.73
48267;BME280;34088;52.232;5.196;2023-10-31T11:40:14;100274.44;;;15.09;85.32
48267;BME280;34088;52.232;5.196;2023-10-31T11:42:43;100268.69;;;14.90;85.79
48267;BME280;34088;52.232;5.196;2023-10-31T11:45:09;100281.19;;;14.71;85.12
48267;BME280;34088;52.232;5.196;2023-10-31T11:47:49;100278.91;;;14.65;85.71
48267;BME280;34088;52.232;5.196;2023-10-31T11:50:16;100279.19;;;14.47;85.45
48267;BME280;34088;52.232;5.196;2023-10-31T11:52:41;100287.59;;;14.36;85.15
48267;BME280;34088;52.232;5.196;2023-10-31T11:55:10;100287.88;;;14.32;85.39
48267;BME280;34088;52.232;5.196;2023-10-31T11:57:36;100298.50;;;14.13;85.71
48267;BME280;34088;52.232;5.196;2023-10-31T12:00:01;100296.47;;;14.18;86.57
48267;BME280;34088;52.232;5.196;2023-10-31T12:02:27;100303.44;;;14.18;86.92
48267;BME280;34088;52.232;5.196;2023-10-31T12:05:06;100306.59;;;13.93;87.64
48267;BME280;34088;52.232;5.196;2023-10-31T12:07:44;100303.50;;;13.87;87.83
48267;BME280;34088;52.232;5.196;2023-10-31T12:10:10;100311.84;;;13.78;88.56
48267;BME280;34088;52.232;5.196;2023-10-31T12:12:35;100314.38;;;13.64;88.79
48267;BME280;34088;52.232;5.196;2023-10-31T12:15:07;100310.72;;;13.66;88.29
48267;BME280;34088;52.232;5.196;2023-10-31T12:17:33;100301.53;;;13.61;88.98
48267;BME280;34088;52.232;5.196;2023-10-31T12:20:06;100310.91;;;13.63;88.26
48267;BME280;34088;52.232;5.196;2023-10-31T12:22:32;100316.28;;;13.60;89.11
48267;BME280;34088;52.232;5.196;2023-10-31T12:25:01;100326.00;;;13.57;89.93
48267;BME280;34088;52.232;5.196;2023-10-31T12:27:48;100324.41;;;13.54;90.58
48267;BME280;34088;52.232;5.196;2023-10-31T12:30:20;100332.13;;;13.56;91.49
48267;BME280;34088;52.232;5.196;2023-10-31T12:32:53;100336.53;;;13.55;92.28
48267;BME280;34088;52.232;5.196;2023-10-31T12:35:22;100334.34;;;13.48;93.06
48267;BME280;34088;52.232;5.196;2023-10-31T12:37:48;100339.47;;;13.49;93.72
48267;BME280;34088;52.232;5.196;2023-10-31T12:40:16;100334.06;;;13.37;95.00
48267;BME280;34088;52.232;5.196;2023-10-31T12:42:43;100330.34;;;13.25;95.60
48267;BME280;34088;52.232;5.196;2023-10-31T12:45:09;100342.25;;;13.14;95.40
48267;BME280;34088;52.232;5.196;2023-10-31T12:47:34;100344.78;;;13.15;96.02
48267;BME280;34088;52.232;5.196;2023-10-31T12:50:14;100342.50;;;13.09;95.30
48267;BME280;34088;52.232;5.196;2023-10-31T12:52:53;100328.72;;;12.90;95.85
48267;BME280;34088;52.232;5.196;2023-10-31T12:55:23;100323.09;;;12.99;95.43
48267;BME280;34088;52.232;5.196;2023-10-31T12:57:50;100327.06;;;12.89;94.78